To NAV CANADA Home Page Login to a new session Search on AWWS site Feedback and Comments Disclaimer Vers la page française équivalente Tips FAQ What's new on the site To the Forecasts and Observations / NOTAM section To "File a Flight Plan" website Publications and other links Update of the User's profile FIC Telephone Numbers My Weather Data Folder Route Weather Data Regional Weather Data Local Weather Data To the Forecasts and Observations / NOTAM section
Request Generated 07/26/2016 at 00:35:15 UTC . Weather information available at that time is displayed.

METAR/TAF

KINGSTON/ON    

METAR CYGK 260000Z 25009G15KT 15SM FEW030 FEW240 27/19 A2976 RMK
CU1CI1 CI TR SLP077 DENSITY ALT 1900FT=
METAR CYGK 252300Z 23012G18KT 12SM FEW030 FEW140 FEW240 27/22 A2975
RMK SC1AC1CI1 CI TR SLP073 DENSITY ALT 1900FT=
METAR CYGK 252200Z 23014KT 12SM SCT023 SCT140 28/22 A2975 RMK SC3AC1
SLP074 DENSITY ALT 2000FT=

TAF CYGK 251938Z 2520/2603 20012KT P6SM BKN030 TEMPO 2520/2521 5SM
-SHRA BR OVC020
FM252100 21010KT P6SM SCT030 PROB30 2521/2523 VRB15G25KT 11/2SM
TSRA BR BKN015 OVC030CB
BECMG 2600/2602 28012KT
RMK NXT FCST WILL BE ISSUED AT 261145Z=
Your time UTC time
Weather data provided by Environment Canada and NAV CANADA